Etusivu
METAR-TAF:

METAR-TAF

Lentoasemat :

Andøya, Norja

Leveyspiiri: 69-18N, Pituuspiiri: 016-09E, korkeus merenpinnasta: 1 m

Tämänhetkinen sää

Tämä raportti tehtiin 23 minuuttia sitten, kello 20.20 UTC
Tuuli 3 kn pohjoisesta, vaihdellen luoteen ja koillisen välillä
Lämpötila 13°C
Kosteus 77%
Ilmanpaine 1023 hPa
Näkyvyys 10 km tai enemmän

METAR: ENAN 232020Z AUTO 01003KT 320V040 9999 NCD 13/09 Q1023

Aika: 22:43 (20:43 UTC)

Sääennuste

Ennuste voimassa 23. päivästä klo 18 UTC - 24. päivään klo 18 UTC
Tuuli 5 kn koillisesta
Näkyvyys 10 km tai enemmän
ei pilviä alle 1500 m:ssä eikä cumulonimbus-pilviä
Tulossa
24. päivästä klo 14 UTC - 24. päivään klo 17 UTC
Hajonneita pilviä 400 ft:n korkeudessa
Ajoittain
24. päivästä klo 14 UTC - 24. päivään klo 18 UTC
Näkyvyys: 0500 m
100 ft:n korkeudessa
sumua

TAF: ENAN 2318/2418 04005KT CAVOK BECMG 2414/2417 BKN004 TEMPO 2414/2418 0500 FG VV001

Säähavainnot ja -ennusteet yli 4000 lentoasemalta (METAR- ja TAF-raportit).

Käytössä olevat sääasemat on merkitty karttaan keltaisilla ja punaisilla pisteillä.

Aseta hiiri pisteen päälle nähdäksesi sääaseman nimen.

Klikkaa sitten nähdäksesi säähavainnot ja -ennusteet.

Kartan vaihtaminen: klikkaa mustalla rastilla varustettuja vihreitä pisteitä, niin voit zoomata sisään; viivalla varustettua vihreää pistettä, niin voit zoomata ulos tai vihreitä nuolia, niin pääset viereisille kartoille.


METAR-TAF: